Time;durP1;ratioP1;P1;durP2;ratioP2;P2;SDS_P1;SDS_P2;PMS_P1;PMS_P2;Temp;Humidity;BMP_temperature;BMP_pressure;BME280_temperature;BME280_humidity;BME280_pressure;Samples;Min_cycle;Max_cycle;Signal;HPM_P1;HPM_P2
2020/09/24 00:02:25;;;;;;;2.1;0.9;;;;;;;;;;;;;
2020/09/24 00:04:50;;;;;;;0.7;0.4;;;;;;;;;;;;;
2020/09/24 00:07:15;;;;;;;2;0.7;;;;;;;;;;;;;
2020/09/24 00:09:40;;;;;;;0.6;0.5;;;;;;;;;;;;;
2020/09/24 00:12:05;;;;;;;1.7;0.5;;;;;;;;;;;;;
2020/09/24 00:14:31;;;;;;;0.9;0.7;;;;;;;;;;;;;
2020/09/24 00:16:56;;;;;;;1;0.6;;;;;;;;;;;;;
2020/09/24 00:19:21;;;;;;;0.7;0.5;;;;;;;;;;;;;
2020/09/24 00:21:49;;;;;;;1.4;0.7;;;;;;;;;;;;;
2020/09/24 00:24:12;;;;;;;1.8;0.5;;;;;;;;;;;;;
2020/09/24 00:26:39;;;;;;;0.6;0.5;;;;;;;;;;;;;
2020/09/24 00:29:04;;;;;;;1.4;0.5;;;;;;;;;;;;;
2020/09/24 00:31:29;;;;;;;0.9;0.5;;;;;;;;;;;;;
2020/09/24 00:33:57;;;;;;;0.5;0.4;;;;;;;;;;;;;
2020/09/24 00:36:20;;;;;;;1.2;0.7;;;;;;;;;;;;;
2020/09/24 00:38:46;;;;;;;1.4;0.6;;;;;;;;;;;;;
2020/09/24 00:41:14;;;;;;;1;0.5;;;;;;;;;;;;;
2020/09/24 00:43:39;;;;;;;1.1;0.7;;;;;;;;;;;;;
2020/09/24 00:46:04;;;;;;;0.7;0.5;;;;;;;;;;;;;
2020/09/24 00:48:29;;;;;;;1.7;0.8;;;;;;;;;;;;;
2020/09/24 00:50:55;;;;;;;0.6;0.4;;;;;;;;;;;;;
2020/09/24 00:53:20;;;;;;;1.6;0.5;;;;;;;;;;;;;
2020/09/24 00:55:46;;;;;;;0.5;0.4;;;;;;;;;;;;;
2020/09/24 00:58:11;;;;;;;0.9;0.6;;;;;;;;;;;;;
2020/09/24 01:00:36;;;;;;;1;0.5;;;;;;;;;;;;;
2020/09/24 01:03:01;;;;;;;0.5;0.5;;;;;;;;;;;;;
2020/09/24 01:05:26;;;;;;;0.6;0.4;;;;;;;;;;;;;
2020/09/24 01:07:51;;;;;;;0.5;0.3;;;;;;;;;;;;;
2020/09/24 01:10:18;;;;;;;5.8;0.8;;;;;;;;;;;;;
2020/09/24 01:12:43;;;;;;;0.3;0.2;;;;;;;;;;;;;
2020/09/24 01:15:09;;;;;;;0.9;0.7;;;;;;;;;;;;;
2020/09/24 01:17:34;;;;;;;0.5;0.5;;;;;;;;;;;;;
2020/09/24 01:20:00;;;;;;;0.5;0.5;;;;;;;;;;;;;
2020/09/24 01:22:25;;;;;;;0.7;0.4;;;;;;;;;;;;;
2020/09/24 01:24:51;;;;;;;0.8;0.6;;;;;;;;;;;;;
2020/09/24 01:27:16;;;;;;;1.8;0.7;;;;;;;;;;;;;
2020/09/24 01:29:42;;;;;;;1.4;0.6;;;;;;;;;;;;;
2020/09/24 01:32:07;;;;;;;0.6;0.5;;;;;;;;;;;;;
2020/09/24 01:34:33;;;;;;;0.6;0.5;;;;;;;;;;;;;
2020/09/24 01:36:59;;;;;;;1.3;0.6;;;;;;;;;;;;;
2020/09/24 01:39:24;;;;;;;0.8;0.5;;;;;;;;;;;;;
2020/09/24 01:41:51;;;;;;;0.4;0.4;;;;;;;;;;;;;
2020/09/24 01:44:16;;;;;;;0.7;0.4;;;;;;;;;;;;;
2020/09/24 01:46:41;;;;;;;0.8;0.4;;;;;;;;;;;;;
2020/09/24 01:49:07;;;;;;;0.4;0.3;;;;;;;;;;;;;
2020/09/24 01:51:32;;;;;;;1.6;0.7;;;;;;;;;;;;;
2020/09/24 01:53:59;;;;;;;1;0.6;;;;;;;;;;;;;
2020/09/24 01:56:24;;;;;;;1.1;0.3;;;;;;;;;;;;;
2020/09/24 01:58:50;;;;;;;1.6;0.5;;;;;;;;;;;;;
2020/09/24 02:01:15;;;;;;;0.8;0.4;;;;;;;;;;;;;
2020/09/24 02:03:41;;;;;;;1.7;0.6;;;;;;;;;;;;;
2020/09/24 02:06:07;;;;;;;2.9;0.9;;;;;;;;;;;;;
2020/09/24 02:08:32;;;;;;;10;0.6;;;;;;;;;;;;;
2020/09/24 02:10:57;;;;;;;1.4;0.5;;;;;;;;;;;;;
2020/09/24 02:13:24;;;;;;;1.1;0.6;;;;;;;;;;;;;
2020/09/24 02:15:50;;;;;;;0.6;0.5;;;;;;;;;;;;;
2020/09/24 02:18:15;;;;;;;0.6;0.4;;;;;;;;;;;;;
2020/09/24 02:20:40;;;;;;;1;0.6;;;;;;;;;;;;;
2020/09/24 02:23:06;;;;;;;0.5;0.4;;;;;;;;;;;;;
2020/09/24 02:25:31;;;;;;;1.4;0.6;;;;;;;;;;;;;
2020/09/24 02:27:56;;;;;;;0.9;0.7;;;;;;;;;;;;;
2020/09/24 02:30:21;;;;;;;2;0.6;;;;;;;;;;;;;
2020/09/24 02:32:49;;;;;;;5.9;0.8;;;;;;;;;;;;;
2020/09/24 02:35:14;;;;;;;1.4;0.7;;;;;;;;;;;;;
2020/09/24 02:37:39;;;;;;;1.6;0.6;;;;;;;;;;;;;
2020/09/24 02:40:04;;;;;;;0.3;0.3;;;;;;;;;;;;;
2020/09/24 02:42:31;;;;;;;3.3;0.6;;;;;;;;;;;;;
2020/09/24 02:44:56;;;;;;;1.4;0.7;;;;;;;;;;;;;
2020/09/24 02:47:22;;;;;;;0.7;0.5;;;;;;;;;;;;;
2020/09/24 02:49:47;;;;;;;0.3;0.3;;;;;;;;;;;;;
2020/09/24 02:52:13;;;;;;;0.8;0.5;;;;;;;;;;;;;
2020/09/24 02:54:38;;;;;;;3.5;0.7;;;;;;;;;;;;;
2020/09/24 02:57:05;;;;;;;1.2;0.8;;;;;;;;;;;;;
2020/09/24 02:59:30;;;;;;;1;0.5;;;;;;;;;;;;;
2020/09/24 03:01:56;;;;;;;0.8;0.5;;;;;;;;;;;;;
2020/09/24 03:04:21;;;;;;;1.6;0.7;;;;;;;;;;;;;
2020/09/24 03:06:47;;;;;;;10.1;0.9;;;;;;;;;;;;;
2020/09/24 03:09:12;;;;;;;1.8;0.6;;;;;;;;;;;;;
2020/09/24 03:11:43;;;;;;;0.8;0.5;;;;;;;;;;;;;
2020/09/24 03:14:09;;;;;;;0.6;0.6;;;;;;;;;;;;;
2020/09/24 03:16:34;;;;;;;1.2;0.4;;;;;;;;;;;;;
2020/09/24 03:19:00;;;;;;;1.1;0.5;;;;;;;;;;;;;
2020/09/24 03:21:25;;;;;;;1.2;0.8;;;;;;;;;;;;;
2020/09/24 03:23:51;;;;;;;0.8;0.6;;;;;;;;;;;;;
2020/09/24 03:26:16;;;;;;;1.1;0.6;;;;;;;;;;;;;
2020/09/24 03:28:43;;;;;;;1.1;0.9;;;;;;;;;;;;;
2020/09/24 03:31:08;;;;;;;0.8;0.4;;;;;;;;;;;;;
2020/09/24 03:33:35;;;;;;;1.7;0.5;;;;;;;;;;;;;
2020/09/24 03:36:00;;;;;;;2.8;1.3;;;;;;;;;;;;;
2020/09/24 03:38:26;;;;;;;2.3;0.9;;;;;;;;;;;;;
2020/09/24 03:40:51;;;;;;;4.1;1;;;;;;;;;;;;;
2020/09/24 03:43:16;;;;;;;2.6;0.9;;;;;;;;;;;;;
2020/09/24 03:45:42;;;;;;;1;0.7;;;;;;;;;;;;;
2020/09/24 03:48:07;;;;;;;0.8;0.7;;;;;;;;;;;;;
2020/09/24 03:50:32;;;;;;;0.5;0.5;;;;;;;;;;;;;
2020/09/24 03:52:58;;;;;;;2.1;0.8;;;;;;;;;;;;;
2020/09/24 03:55:23;;;;;;;3.9;0.9;;;;;;;;;;;;;
2020/09/24 03:57:48;;;;;;;0.9;0.7;;;;;;;;;;;;;
2020/09/24 04:02:30;;;;;;;1.3;0.4;;;;;;;13.62;90.66895;931.6113;;;;
2020/09/24 04:04:58;;;;;;;4;0.9;;;;;;;13.28;92.28809;931.5924;;;;
2020/09/24 04:07:22;;;;;;;1.6;0.7;;;;;;;13.29;92.12891;931.6283;;;;
2020/09/24 04:09:48;;;;;;;0.6;0.5;;;;;;;13.04;92.79883;931.5793;;;;
2020/09/24 04:12:13;;;;;;;0.7;0.6;;;;;;;13.02;93.1875;931.5851;;;;
2020/09/24 04:14:39;;;;;;;0.7;0.3;;;;;;;13.03;93.29102;931.6258;;;;
2020/09/24 04:17:04;;;;;;;0.9;0.7;;;;;;;13.14;92.63867;931.6014;;;;
2020/09/24 04:19:35;;;;;;;2.4;0.8;;;;;;;13.17;92.34375;931.6347;;;;
2020/09/24 04:22:07;;;;;;;0.3;0.3;;;;;;;13.24;92.05078;931.6664;;;;
2020/09/24 04:24:32;;;;;;;0.5;0.3;;;;;;;13.21;92.0332;931.6435;;;;
2020/09/24 04:26:57;;;;;;;0.8;0.5;;;;;;;13.31;91.38574;931.5897;;;;
2020/09/24 04:29:22;;;;;;;1.8;1.1;;;;;;;13.11;92.2627;931.5906;;;;
2020/09/24 04:31:53;;;;;;;3.8;1.1;;;;;;;13.05;92.67676;931.5577;;;;
2020/09/24 04:34:18;;;;;;;1;0.6;;;;;;;13.16;92.28418;931.5597;;;;
2020/09/24 04:36:45;;;;;;;2.4;0.9;;;;;;;13.25;91.55859;931.5839;;;;
2020/09/24 04:39:10;;;;;;;1.2;0.6;;;;;;;13.34;90.91113;931.6572;;;;
2020/09/24 04:41:36;;;;;;;0.8;0.7;;;;;;;13.25;90.74316;931.6495;;;;
2020/09/24 04:44:01;;;;;;;4.8;0.8;;;;;;;13.3;90.53613;931.633;;;;
2020/09/24 04:46:29;;;;;;;2.7;0.9;;;;;;;13.28;90.95703;931.7515;;;;
2020/09/24 04:48:54;;;;;;;2.1;0.9;;;;;;;13.35;90.75391;931.758;;;;
2020/09/24 04:51:19;;;;;;;1;0.6;;;;;;;13.43;90.48145;931.8028;;;;
2020/09/24 04:53:45;;;;;;;0.8;0.5;;;;;;;13.46;89.5332;931.7881;;;;
2020/09/24 04:56:10;;;;;;;1.4;0.7;;;;;;;13.51;88.98047;931.749;;;;
2020/09/24 04:58:36;;;;;;;1.7;1;;;;;;;13.4;89.39355;931.7621;;;;
2020/09/24 05:01:01;;;;;;;1.2;1;;;;;;;13.35;89.7998;931.7642;;;;
2020/09/24 05:03:27;;;;;;;3.8;1.5;;;;;;;13.37;90.16992;931.733;;;;
2020/09/24 05:05:53;;;;;;;1.7;1;;;;;;;13.41;90.37402;931.6772;;;;
2020/09/24 05:08:19;;;;;;;1.5;0.8;;;;;;;13.47;89.9834;931.66;;;;
2020/09/24 05:10:50;;;;;;;5.2;0.9;;;;;;;13.39;90.09473;931.6678;;;;
2020/09/24 05:13:18;;;;;;;2.7;1.6;;;;;;;13.32;90.10254;931.6775;;;;
2020/09/24 05:15:44;;;;;;;1.1;1;;;;;;;13.36;90.23633;931.705;;;;
2020/09/24 05:18:12;;;;;;;3.3;0.9;;;;;;;13.39;90.5293;931.711;;;;
2020/09/24 05:20:37;;;;;;;3;1.1;;;;;;;13.42;90.13477;931.6854;;;;
2020/09/24 05:23:03;;;;;;;1.5;0.6;;;;;;;13.52;90.68262;931.7649;;;;
2020/09/24 05:25:29;;;;;;;1.9;1;;;;;;;13.73;90.03711;931.7889;;;;
2020/09/24 05:27:57;;;;;;;2.5;0.6;;;;;;;13.81;89.41016;931.8167;;;;
2020/09/24 05:30:23;;;;;;;1.7;0.7;;;;;;;13.81;88.89453;931.883;;;;
2020/09/24 05:32:48;;;;;;;1.5;0.4;;;;;;;13.86;88.91309;931.9291;;;;
2020/09/24 05:35:13;;;;;;;1.3;0.5;;;;;;;13.84;89.12793;932.0039;;;;
2020/09/24 05:37:40;;;;;;;1;0.8;;;;;;;14.06;88.52734;931.9106;;;;
2020/09/24 05:40:05;;;;;;;3.8;0.7;;;;;;;14.2;87.47461;931.9824;;;;
2020/09/24 05:42:32;;;;;;;0.9;0.7;;;;;;;14.26;87.25684;932.0369;;;;
2020/09/24 05:44:56;;;;;;;0.9;0.7;;;;;;;14.31;87.09277;932.0531;;;;
2020/09/24 05:47:24;;;;;;;1.5;0.6;;;;;;;14.45;87.51367;932.0603;;;;
2020/09/24 05:49:49;;;;;;;1.1;0.7;;;;;;;14.59;87.18359;931.9372;;;;
2020/09/24 05:52:14;;;;;;;1.2;0.4;;;;;;;14.63;86.60449;932.0041;;;;
2020/09/24 05:54:40;;;;;;;1.6;0.6;;;;;;;14.73;87.27051;932.1074;;;;
2020/09/24 05:57:05;;;;;;;2.4;0.8;;;;;;;14.8;86.71973;932.1423;;;;
2020/09/24 05:59:30;;;;;;;5.5;1.7;;;;;;;15;86.38965;932.1415;;;;
2020/09/24 06:01:55;;;;;;;6.4;3.1;;;;;;;15.06;86.1582;932.0486;;;;
2020/09/24 06:04:20;;;;;;;1.9;1.4;;;;;;;15.02;86.04785;932.115;;;;
2020/09/24 06:06:46;;;;;;;2.2;1.3;;;;;;;15.08;86.19824;932.175;;;;
2020/09/24 06:09:11;;;;;;;4;1;;;;;;;15.15;86.21289;932.2049;;;;
2020/09/24 06:11:38;;;;;;;2.1;1;;;;;;;15.21;85.61328;932.1541;;;;
2020/09/24 06:14:03;;;;;;;1.5;0.6;;;;;;;15.3;85.56934;932.1488;;;;
2020/09/24 06:16:30;;;;;;;2.9;0.9;;;;;;;15.43;85.2168;932.1378;;;;
2020/09/24 06:18:55;;;;;;;2.6;1.1;;;;;;;15.21;85.31152;932.1599;;;;
2020/09/24 06:21:20;;;;;;;1.6;1.1;;;;;;;15.18;85.47949;932.1547;;;;
2020/09/24 06:23:45;;;;;;;0.9;0.6;;;;;;;15.37;85.1582;932.0873;;;;
2020/09/24 06:26:10;;;;;;;2.8;0.4;;;;;;;15.53;84.47266;932.0669;;;;
2020/09/24 06:28:38;;;;;;;2.6;0.9;;;;;;;15.69;83.5791;932.1334;;;;
2020/09/24 06:31:00;;;;;;;3.7;0.9;;;;;;;15.73;82.61621;932.1445;;;;
2020/09/24 06:33:26;;;;;;;1.1;0.6;;;;;;;15.76;85.10547;932.1336;;;;
2020/09/24 06:35:51;;;;;;;1.3;0.8;;;;;;;15.39;84.94238;932.0789;;;;
2020/09/24 06:38:17;;;;;;;1.9;0.7;;;;;;;15.69;85.70508;932.155;;;;
2020/09/24 06:40:42;;;;;;;1.1;0.8;;;;;;;15.9;84.03711;932.1791;;;;
2020/09/24 06:43:07;;;;;;;1.5;1;;;;;;;16.09;84.47656;932.1995;;;;
2020/09/24 06:45:32;;;;;;;1.2;1;;;;;;;16.24;83.45313;932.2391;;;;
2020/09/24 06:47:58;;;;;;;2.4;0.8;;;;;;;16.55;81.80957;932.2115;;;;
2020/09/24 06:50:23;;;;;;;0.5;0.5;;;;;;;16.64;80.56445;932.2531;;;;
2020/09/24 06:52:50;;;;;;;1.2;0.8;;;;;;;16.59;80.19727;932.2859;;;;
2020/09/24 06:55:15;;;;;;;1.3;0.8;;;;;;;16.81;78.5332;932.2631;;;;
2020/09/24 06:57:42;;;;;;;2.2;1;;;;;;;16.77;78.71191;932.2673;;;;
2020/09/24 07:00:08;;;;;;;1.1;0.6;;;;;;;16.48;79.15918;932.2942;;;;
2020/09/24 07:02:35;;;;;;;1.2;0.6;;;;;;;16.84;79.17773;932.3397;;;;
2020/09/24 07:05:01;;;;;;;0.6;0.6;;;;;;;16.2;81.78027;932.4019;;;;
2020/09/24 07:07:26;;;;;;;0.5;0.4;;;;;;;16.84;80.23047;932.3293;;;;
2020/09/24 07:09:53;;;;;;;1.7;1.1;;;;;;;16.81;79.88965;932.3506;;;;
2020/09/24 07:12:19;;;;;;;1.3;0.8;;;;;;;16.96;78.71289;932.3585;;;;
2020/09/24 07:14:46;;;;;;;3.3;1.1;;;;;;;16.67;80.39648;932.3734;;;;
2020/09/24 07:17:11;;;;;;;0.8;0.6;;;;;;;17.06;79.29688;932.3275;;;;
2020/09/24 07:19:38;;;;;;;0.5;0.4;;;;;;;17.41;77.85254;932.3823;;;;
2020/09/24 07:22:03;;;;;;;0.6;0.4;;;;;;;17.57;77.43066;932.301;;;;
2020/09/24 07:24:30;;;;;;;4;0.9;;;;;;;17.66;77.70117;932.3408;;;;
2020/09/24 07:26:59;;;;;;;10.1;0.9;;;;;;;18.36;74.95215;932.3727;;;;
2020/09/24 07:29:24;;;;;;;0.9;0.5;;;;;;;18.76;73.15918;932.3259;;;;
2020/09/24 07:31:49;;;;;;;1.6;0.6;;;;;;;19.12;70.82031;932.3525;;;;
2020/09/24 07:34:14;;;;;;;0.9;0.5;;;;;;;20.67;66.15039;932.3527;;;;
2020/09/24 07:36:39;;;;;;;21.2;1.2;;;;;;;21.63;61.38672;932.3711;;;;
2020/09/24 07:39:04;;;;;;;1.7;0.8;;;;;;;22.1;58.48535;932.3864;;;;
2020/09/24 07:41:31;;;;;;;0.5;0.2;;;;;;;22.45;58.2627;932.3542;;;;
2020/09/24 07:43:55;;;;;;;0.6;0.4;;;;;;;22.96;54.74707;932.3611;;;;
2020/09/24 07:46:23;;;;;;;0.4;0.4;;;;;;;23.64;54.71191;932.3918;;;;
2020/09/24 07:48:48;;;;;;;1.2;0.6;;;;;;;24.83;50.6709;932.2742;;;;
2020/09/24 07:51:14;;;;;;;0.2;0.2;;;;;;;25.58;47.31934;932.3109;;;;
2020/09/24 07:53:39;;;;;;;0.4;0.3;;;;;;;26.67;45.81055;932.2797;;;;
2020/09/24 07:56:05;;;;;;;0.4;0.2;;;;;;;27.62;44.03223;932.2509;;;;
2020/09/24 07:58:31;;;;;;;0.5;0.4;;;;;;;27.94;42.65137;932.2693;;;;
2020/09/24 08:00:56;;;;;;;0.3;0.3;;;;;;;27.84;41.66797;932.2975;;;;
2020/09/24 08:03:22;;;;;;;0.3;0.2;;;;;;;28.4;41.16113;932.2936;;;;
2020/09/24 08:05:46;;;;;;;0.8;0.1;;;;;;;29.43;39.51465;932.2985;;;;
2020/09/24 08:08:12;;;;;;;0.5;0.2;;;;;;;30.57;37.70313;932.3006;;;;
2020/09/24 08:10:37;;;;;;;0.2;0.2;;;;;;;28.94;38.29297;932.3441;;;;
2020/09/24 08:13:03;;;;;;;0.4;0.2;;;;;;;27.76;41.3623;932.32;;;;
2020/09/24 08:15:28;;;;;;;0.3;0.2;;;;;;;29.96;38.08203;932.3423;;;;
2020/09/24 08:17:56;;;;;;;0.2;0.2;;;;;;;29.46;38.09961;932.3592;;;;
2020/09/24 08:20:21;;;;;;;0.5;0.3;;;;;;;30.09;37.55566;932.3248;;;;
2020/09/24 08:22:48;;;;;;;0.2;0.2;;;;;;;29.49;39.28125;932.3881;;;;
2020/09/24 08:25:13;;;;;;;0.3;0.3;;;;;;;31.47;35.07324;932.3956;;;;
2020/09/24 08:27:39;;;;;;;0.5;0.4;;;;;;;30.49;35.61719;932.3064;;;;
2020/09/24 08:30:04;;;;;;;0.3;0.3;;;;;;;29.75;37.46777;932.2746;;;;
2020/09/24 08:32:31;;;;;;;0.3;0.3;;;;;;;29.65;37.65137;932.3622;;;;
2020/09/24 08:34:56;;;;;;;2.8;0.8;;;;;;;31.29;35.72949;932.41;;;;
2020/09/24 08:37:23;;;;;;;1.2;0.3;;;;;;;32.13;32.9541;932.4194;;;;
2020/09/24 08:39:48;;;;;;;0.1;0.1;;;;;;;32.02;32.85059;932.4127;;;;
2020/09/24 08:42:16;;;;;;;0.2;0.2;;;;;;;30.33;35.33105;932.3606;;;;
2020/09/24 08:44:44;;;;;;;0.9;0.5;;;;;;;30.3;36.35547;932.3728;;;;
2020/09/24 08:47:09;;;;;;;0.3;0.2;;;;;;;31.2;36.05664;932.3597;;;;
2020/09/24 08:49:38;;;;;;;0.2;0.2;;;;;;;30.82;34.05371;932.3222;;;;
2020/09/24 08:52:03;;;;;;;0.1;0.1;;;;;;;31.58;34.31445;932.4039;;;;
2020/09/24 08:54:29;;;;;;;1.3;0.4;;;;;;;32.04;32.73145;932.409;;;;
2020/09/24 08:56:54;;;;;;;0.6;0.2;;;;;;;31.71;33.63086;932.4137;;;;
2020/09/24 08:59:20;;;;;;;0.4;0.3;;;;;;;30.29;36.21094;932.3181;;;;
2020/09/24 09:01:46;;;;;;;0.7;0.4;;;;;;;29.9;36.57422;932.2809;;;;
2020/09/24 09:04:11;;;;;;;0.3;0.2;;;;;;;29.86;37.03516;932.2893;;;;
2020/09/24 09:06:37;;;;;;;0.1;0.1;;;;;;;29.56;36.48633;932.2509;;;;
2020/09/24 09:09:02;;;;;;;0.8;0.2;;;;;;;26.19;45.58496;932.253;;;;
2020/09/24 09:11:30;;;;;;;3.4;0.6;;;;;;;26.21;46.08301;932.2308;;;;
2020/09/24 09:13:55;;;;;;;0.6;0.4;;;;;;;26.94;42.91113;932.2617;;;;
2020/09/24 09:16:20;;;;;;;0.6;0.5;;;;;;;26.53;45.03906;932.2369;;;;
2020/09/24 09:18:46;;;;;;;0.3;0.3;;;;;;;26.7;43.87207;932.2719;;;;
2020/09/24 09:21:12;;;;;;;1;0.3;;;;;;;26;44.47656;932.2196;;;;
2020/09/24 09:23:38;;;;;;;0.3;0.2;;;;;;;26.1;42.73633;932.1675;;;;
2020/09/24 09:26:03;;;;;;;0.2;0.2;;;;;;;25.48;44.42578;932.1697;;;;
2020/09/24 09:28:32;;;;;;;0.5;0.2;;;;;;;25.68;45.52148;932.0984;;;;
2020/09/24 09:31:05;;;;;;;1.2;0.3;;;;;;;25.72;46.15137;932.0324;;;;
2020/09/24 09:33:32;;;;;;;0.3;0.2;;;;;;;25.59;47.8623;932.0536;;;;
2020/09/24 09:35:56;;;;;;;0.4;0.4;;;;;;;25.43;46.45215;932.0031;;;;
2020/09/24 09:38:23;;;;;;;0.6;0.3;;;;;;;24.72;50.50586;931.9788;;;;
2020/09/24 09:40:48;;;;;;;0.6;0.4;;;;;;;24.85;51.39355;931.991;;;;
2020/09/24 09:43:15;;;;;;;0.7;0.5;;;;;;;25.3;50.75977;932.0392;;;;
2020/09/24 09:45:41;;;;;;;0.2;0.2;;;;;;;25.3;50.05273;932.0209;;;;
2020/09/24 09:48:09;;;;;;;0.4;0.4;;;;;;;25.28;49.4707;932.0313;;;;
2020/09/24 09:50:34;;;;;;;1;0.3;;;;;;;25.3;49.06055;931.9012;;;;
2020/09/24 09:53:00;;;;;;;1.3;0.5;;;;;;;25.33;48.73242;931.9272;;;;
2020/09/24 09:55:25;;;;;;;1.4;0.3;;;;;;;25.31;49.4502;931.8951;;;;
2020/09/24 09:57:51;;;;;;;0.6;0.3;;;;;;;25.52;48.70605;931.8943;;;;
2020/09/24 10:00:18;;;;;;;1.5;0.3;;;;;;;25.63;47.50098;931.8998;;;;
2020/09/24 10:02:44;;;;;;;1.3;0.3;;;;;;;25.78;48.00098;931.8718;;;;
2020/09/24 10:05:09;;;;;;;0.9;0.5;;;;;;;25.82;48.05176;931.8711;;;;
2020/09/24 10:07:36;;;;;;;1.9;0.7;;;;;;;26.03;46.31445;931.8611;;;;
2020/09/24 10:10:01;;;;;;;0.3;0.2;;;;;;;25.85;48.55176;931.8117;;;;
2020/09/24 10:12:27;;;;;;;0.2;0.2;;;;;;;25.92;47.38965;931.8078;;;;
2020/09/24 10:14:52;;;;;;;0.8;0.5;;;;;;;26.02;47.08105;931.7791;;;;
2020/09/24 10:17:18;;;;;;;0.2;0.2;;;;;;;25.87;48.01074;931.7338;;;;
2020/09/24 10:19:46;;;;;;;1;0.6;;;;;;;25.84;48.03125;931.6897;;;;
2020/09/24 10:22:11;;;;;;;1.1;0.4;;;;;;;25.68;48.3457;931.6591;;;;
2020/09/24 10:24:37;;;;;;;0.3;0.3;;;;;;;25.57;49.20703;931.6683;;;;
2020/09/24 10:27:02;;;;;;;0.6;0.5;;;;;;;25.25;49.69238;931.6571;;;;
2020/09/24 10:29:30;;;;;;;0.9;0.4;;;;;;;25.32;48.50684;931.5939;;;;
2020/09/24 10:31:56;;;;;;;0.3;0.2;;;;;;;25.21;49.74609;931.5818;;;;
2020/09/24 10:34:21;;;;;;;0.5;0.3;;;;;;;25.3;50.77148;931.6024;;;;
2020/09/24 10:36:47;;;;;;;0.3;0.3;;;;;;;25.37;50.28418;931.5502;;;;
2020/09/24 10:39:12;;;;;;;0.2;0.2;;;;;;;25.6;49.9668;931.6387;;;;
2020/09/24 10:41:41;;;;;;;0.2;0.2;;;;;;;25.6;49.34082;931.5715;;;;
2020/09/24 10:44:06;;;;;;;2;0.2;;;;;;;25.82;48.92676;931.5566;;;;
2020/09/24 10:46:35;;;;;;;0.4;0.3;;;;;;;25.71;49.0332;931.5385;;;;
2020/09/24 10:49:05;;;;;;;0.4;0.3;;;;;;;25.76;49.74805;931.4838;;;;
2020/09/24 10:51:30;;;;;;;0.8;0.4;;;;;;;25.84;49.62695;931.4599;;;;
2020/09/24 10:53:55;;;;;;;0.5;0.2;;;;;;;25.81;49.23438;931.4758;;;;
2020/09/24 10:56:20;;;;;;;0.2;0.2;;;;;;;25.91;48.98535;931.4165;;;;
2020/09/24 10:58:45;;;;;;;0.8;0.4;;;;;;;26.14;48.27734;931.3812;;;;
2020/09/24 11:01:10;;;;;;;2.3;0.7;;;;;;;26.07;47.61914;931.3611;;;;
2020/09/24 11:03:36;;;;;;;0.6;0.3;;;;;;;26.11;48.67578;931.3667;;;;
2020/09/24 11:06:03;;;;;;;2;0.7;;;;;;;26.41;48.74316;931.3601;;;;
2020/09/24 11:08:28;;;;;;;1.2;0.4;;;;;;;26.34;49.49414;931.2647;;;;
2020/09/24 11:11:01;;;;;;;0.9;0.3;;;;;;;26.26;47.7334;931.2852;;;;
2020/09/24 11:13:28;;;;;;;1.2;0.4;;;;;;;26.59;47.48535;931.2276;;;;
2020/09/24 11:15:58;;;;;;;1;0.3;;;;;;;26.44;47.51563;931.2755;;;;
2020/09/24 11:18:24;;;;;;;0.2;0.2;;;;;;;26.89;46.53223;931.1833;;;;
2020/09/24 11:20:49;;;;;;;0.6;0.4;;;;;;;27.01;44.74316;931.1699;;;;
2020/09/24 11:23:17;;;;;;;0.2;0.2;;;;;;;26.89;45.66699;931.0934;;;;
2020/09/24 11:25:43;;;;;;;1.1;0.4;;;;;;;27.5;44.16309;931.1094;;;;
2020/09/24 11:28:08;;;;;;;0.5;0.3;;;;;;;27.93;43.72949;931.0061;;;;
2020/09/24 11:30:33;;;;;;;0.4;0.4;;;;;;;28.34;41.86816;930.9924;;;;
2020/09/24 11:32:58;;;;;;;0.5;0.4;;;;;;;28.31;42.30566;930.9736;;;;
2020/09/24 11:35:23;;;;;;;0.3;0.3;;;;;;;28.56;41.93652;930.9203;;;;
2020/09/24 11:37:50;;;;;;;0.5;0.4;;;;;;;28.75;41.40625;930.927;;;;
2020/09/24 11:40:16;;;;;;;1.2;0.5;;;;;;;28.87;41.7041;930.8773;;;;
2020/09/24 11:42:41;;;;;;;0.2;0.2;;;;;;;29.33;41.5918;930.8527;;;;
2020/09/24 11:45:11;;;;;;;0.2;0.2;;;;;;;29.17;40.76758;930.752;;;;
2020/09/24 11:47:37;;;;;;;0.2;0.2;;;;;;;28.9;40.52734;930.639;;;;
2020/09/24 11:50:05;;;;;;;2.6;0.5;;;;;;;28.63;41.37207;930.6755;;;;
2020/09/24 11:52:30;;;;;;;0.7;0.2;;;;;;;27.86;43.22461;930.6479;;;;
2020/09/24 11:54:58;;;;;;;0.9;0.5;;;;;;;27.35;44.49219;930.6271;;;;
2020/09/24 11:57:23;;;;;;;0.7;0.5;;;;;;;26.82;44.62988;930.603;;;;
2020/09/24 11:59:49;;;;;;;0.7;0.5;;;;;;;26.63;45.72461;930.6196;;;;
2020/09/24 12:02:15;;;;;;;0.3;0.3;;;;;;;26.58;45.96777;930.6259;;;;
2020/09/24 12:04:40;;;;;;;0.2;0.2;;;;;;;26.24;46.12207;930.6161;;;;
2020/09/24 12:07:07;;;;;;;0.6;0.5;;;;;;;26.11;46.94824;930.598;;;;
2020/09/24 12:09:32;;;;;;;0.9;0.6;;;;;;;26.01;46.98535;930.5796;;;;
2020/09/24 12:12:00;;;;;;;0.4;0.2;;;;;;;25.91;47.54199;930.572;;;;
2020/09/24 12:14:27;;;;;;;0.3;0.3;;;;;;;25.63;48.25684;930.5175;;;;
2020/09/24 12:16:52;;;;;;;0.9;0.3;;;;;;;25.8;48.94922;930.5032;;;;
2020/09/24 12:19:19;;;;;;;0.3;0.3;;;;;;;26.23;48.46387;930.4567;;;;
2020/09/24 12:21:44;;;;;;;0.2;0.2;;;;;;;26.23;48.38086;930.3898;;;;
2020/09/24 12:24:10;;;;;;;0.5;0.3;;;;;;;26.28;46.90625;930.4369;;;;
2020/09/24 12:26:35;;;;;;;0.4;0.3;;;;;;;26.12;47.35156;930.3959;;;;
2020/09/24 12:29:03;;;;;;;1.1;0.6;;;;;;;26.05;48.19629;930.3535;;;;
2020/09/24 12:31:27;;;;;;;0.6;0.4;;;;;;;26.58;47.02148;930.2731;;;;
2020/09/24 12:33:55;;;;;;;0.6;0.4;;;;;;;27.57;44.28906;930.1774;;;;
2020/09/24 12:36:20;;;;;;;1.1;0.7;;;;;;;28.66;42.43359;930.0385;;;;
2020/09/24 12:38:47;;;;;;;1.4;0.7;;;;;;;29.43;41.18359;929.9813;;;;
2020/09/24 12:41:12;;;;;;;1;0.5;;;;;;;29.94;40.75195;929.9579;;;;
2020/09/24 12:43:38;;;;;;;0.2;0.2;;;;;;;29.97;39.56152;929.9322;;;;
2020/09/24 12:46:03;;;;;;;0.2;0.2;;;;;;;29.02;39.75293;929.8761;;;;
2020/09/24 12:48:30;;;;;;;0.1;0.1;;;;;;;29.13;39.86914;929.8513;;;;
2020/09/24 12:50:55;;;;;;;0.4;0.3;;;;;;;28.66;40.81543;929.7971;;;;
2020/09/24 12:53:21;;;;;;;0.5;0.4;;;;;;;28.79;40.75586;929.7521;;;;
2020/09/24 12:55:46;;;;;;;0.5;0.4;;;;;;;28.54;41.375;929.6481;;;;
2020/09/24 12:58:12;;;;;;;0.4;0.3;;;;;;;28.64;42.76563;929.69;;;;
2020/09/24 13:00:37;;;;;;;0.2;0.2;;;;;;;28.68;41.4834;929.6638;;;;
2020/09/24 13:03:04;;;;;;;0.8;0.7;;;;;;;28.61;42.22754;929.6303;;;;
2020/09/24 13:05:30;;;;;;;0.3;0.2;;;;;;;28.32;42.72266;929.6252;;;;
2020/09/24 13:07:56;;;;;;;0.5;0.4;;;;;;;27.31;43.87207;929.6422;;;;
2020/09/24 13:10:21;;;;;;;0.7;0.4;;;;;;;27.23;44.63477;929.6386;;;;
2020/09/24 13:12:47;;;;;;;0.5;0.5;;;;;;;27.34;44.61035;929.5463;;;;
2020/09/24 13:15:21;;;;;;;0.9;0.5;;;;;;;27.36;44.82617;929.5673;;;;
2020/09/24 13:17:50;;;;;;;0.5;0.4;;;;;;;27.37;44.49512;929.5775;;;;
2020/09/24 13:20:15;;;;;;;3.6;0.6;;;;;;;27.39;44.27051;929.5126;;;;
2020/09/24 13:22:43;;;;;;;0.4;0.4;;;;;;;26.97;45.12988;929.4581;;;;
2020/09/24 13:25:06;;;;;;;0.7;0.5;;;;;;;26.72;45.60352;929.5128;;;;
2020/09/24 13:27:31;;;;;;;0.7;0.3;;;;;;;26.48;46.52539;929.4871;;;;
2020/09/24 13:29:57;;;;;;;0.5;0.3;;;;;;;26.29;47.25098;929.5324;;;;
2020/09/24 13:32:24;;;;;;;0.4;0.3;;;;;;;26.31;48.10547;929.5269;;;;
2020/09/24 13:34:49;;;;;;;0.9;0.6;;;;;;;26.26;48.69238;929.4991;;;;
2020/09/24 13:37:16;;;;;;;0.9;0.6;;;;;;;26.12;48.2627;929.4996;;;;
2020/09/24 13:39:41;;;;;;;1.7;0.7;;;;;;;26.33;48.28516;929.4031;;;;
2020/09/24 13:42:10;;;;;;;0.8;0.5;;;;;;;26.35;48.07422;929.4108;;;;
2020/09/24 13:44:35;;;;;;;0.7;0.3;;;;;;;26.11;48.03711;929.4026;;;;
2020/09/24 13:47:00;;;;;;;0.3;0.3;;;;;;;26.15;49.15332;929.3311;;;;
2020/09/24 13:49:28;;;;;;;0.5;0.3;;;;;;;26.34;49.4707;929.2009;;;;
2020/09/24 13:51:53;;;;;;;0.5;0.3;;;;;;;26.33;48.9834;929.163;;;;
2020/09/24 13:54:19;;;;;;;1.8;0.9;;;;;;;26.31;48.69629;929.2153;;;;
2020/09/24 13:56:44;;;;;;;0.5;0.4;;;;;;;26.32;47.72852;929.1833;;;;
2020/09/24 13:59:09;;;;;;;0.6;0.3;;;;;;;26.73;47.38086;929.0897;;;;
2020/09/24 14:01:34;;;;;;;0.2;0.2;;;;;;;27.6;46.22656;929.0228;;;;
2020/09/24 14:04:00;;;;;;;0.6;0.6;;;;;;;28.6;44.50977;929.0128;;;;
2020/09/24 14:06:25;;;;;;;0.7;0.3;;;;;;;29.27;41.44238;928.9922;;;;
2020/09/24 14:08:51;;;;;;;2.3;0.3;;;;;;;29.33;40.95996;928.8901;;;;
2020/09/24 14:11:16;;;;;;;0.3;0.3;;;;;;;29.55;40.69238;928.9034;;;;
2020/09/24 14:13:43;;;;;;;0.6;0.3;;;;;;;29.88;40.92676;928.8663;;;;
2020/09/24 14:16:08;;;;;;;0.8;0.5;;;;;;;29.85;39.89746;928.7981;;;;
2020/09/24 14:18:35;;;;;;;0.7;0.5;;;;;;;30.41;39.00293;928.8161;;;;
2020/09/24 14:20:59;;;;;;;0.2;0.2;;;;;;;30.54;37.73633;928.7146;;;;
2020/09/24 14:23:26;;;;;;;0.9;0.4;;;;;;;30.61;38.54297;928.7971;;;;
2020/09/24 14:25:51;;;;;;;0.4;0.3;;;;;;;30.48;38.06641;928.8906;;;;
2020/09/24 14:28:17;;;;;;;0.3;0.2;;;;;;;30.1;39.3457;928.8348;;;;
2020/09/24 14:30:42;;;;;;;0.4;0.3;;;;;;;29.64;40.27246;928.85;;;;
2020/09/24 14:33:09;;;;;;;0.5;0.4;;;;;;;29.27;41.28711;928.7936;;;;
2020/09/24 14:35:34;;;;;;;0.2;0.2;;;;;;;28.79;42.01855;928.7787;;;;
2020/09/24 14:38:00;;;;;;;0.6;0.4;;;;;;;28.19;42.95898;928.7598;;;;
2020/09/24 14:40:25;;;;;;;0.5;0.3;;;;;;;27.51;44.47168;928.7955;;;;
2020/09/24 14:42:52;;;;;;;0.3;0.3;;;;;;;26.59;46.08691;928.7364;;;;
2020/09/24 14:45:18;;;;;;;1.6;0.6;;;;;;;26.01;47.625;928.6929;;;;
2020/09/24 14:47:44;;;;;;;1.2;0.4;;;;;;;25.26;49.26758;928.6552;;;;
2020/09/24 14:50:10;;;;;;;1;0.7;;;;;;;25.19;49.81445;928.5958;;;;
2020/09/24 14:52:34;;;;;;;0.4;0.3;;;;;;;25;51.04492;928.5997;;;;
2020/09/24 14:55:00;;;;;;;0.6;0.4;;;;;;;24.93;50.88281;928.553;;;;
2020/09/24 14:57:29;;;;;;;0.7;0.4;;;;;;;24.91;51.62402;928.493;;;;
2020/09/24 14:59:56;;;;;;;0.6;0.3;;;;;;;24.75;51.6875;928.4391;;;;
2020/09/24 15:02:21;;;;;;;0.9;0.3;;;;;;;24.4;52.33008;928.4317;;;;
2020/09/24 15:04:47;;;;;;;0.6;0.5;;;;;;;24.17;53.8457;928.3131;;;;
2020/09/24 15:07:12;;;;;;;0.6;0.6;;;;;;;24.06;53.08008;928.1964;;;;
2020/09/24 15:09:37;;;;;;;0.5;0.4;;;;;;;23.95;53.18457;928.175;;;;
2020/09/24 15:12:05;;;;;;;0.9;0.6;;;;;;;23.61;54.43652;928.0748;;;;
2020/09/24 15:14:30;;;;;;;0.4;0.3;;;;;;;23.25;55.04004;928.1144;;;;
2020/09/24 15:16:55;;;;;;;0.4;0.4;;;;;;;23.04;55.70801;928.1161;;;;
2020/09/24 15:19:21;;;;;;;0.7;0.3;;;;;;;23.04;55.08496;928.1202;;;;
2020/09/24 15:21:46;;;;;;;1.4;0.7;;;;;;;22.65;56.79785;928.1348;;;;
2020/09/24 15:24:14;;;;;;;2.8;0.5;;;;;;;22.57;56.71777;928.024;;;;
2020/09/24 15:26:39;;;;;;;0.2;0.2;;;;;;;22.74;56.90234;928.0536;;;;
2020/09/24 15:29:04;;;;;;;0.4;0.3;;;;;;;22.73;56.44336;928.0324;;;;
2020/09/24 15:31:30;;;;;;;1.9;0.6;;;;;;;22.71;56.89941;927.9852;;;;